Terminal Aerodrome Forecast
Issued by NWS Missoula, MT

Home | Current Version | Previous Version | Text Only | Print | Product List | Glossary On
Versions: 1 2 3 4 5 6 7 8 9 10 11 12 13 14 15 16 17 18 19
972
FTUS45 KMSO 181739
TAFMSO
TAF
KMSO 181739Z 1818/1918 VRB05KT P6SM VCSH BKN050
     FM190000 25005KT P6SM VCSH BKN060
     FM190500 VRB03KT 3SM -SNRA OVC030
     FM191000 11007KT 6SM BR VCSH OVC035=

USA.gov is the U.S. government's official web portal to all federal, state and local government web resources and services.